createdAt,value
2019-04-27T00:00:57.362Z,97465.00
2019-04-27T00:03:41.393Z,97458.00
2019-04-27T00:06:10.150Z,97465.00
2019-04-27T00:08:43.008Z,97452.00
2019-04-27T00:11:16.889Z,97459.00
2019-04-27T00:13:46.565Z,97457.00
2019-04-27T00:16:17.898Z,97447.00
2019-04-27T00:18:54.845Z,97454.00
2019-04-27T00:21:36.552Z,97446.00
2019-04-27T00:24:05.913Z,97438.00
2019-04-27T00:26:36.017Z,97438.00
2019-04-27T00:29:05.547Z,97437.00
2019-04-27T00:31:35.296Z,97444.00
2019-04-27T00:34:04.803Z,97437.00
2019-04-27T00:36:35.795Z,97423.00
2019-04-27T00:39:11.830Z,97434.00
2019-04-27T00:41:43.030Z,97419.00
2019-04-27T00:44:13.524Z,97411.00
2019-04-27T00:46:43.617Z,97417.00
2019-04-27T00:49:13.777Z,97420.00
2019-04-27T00:51:43.469Z,97410.00
2019-04-27T00:54:13.714Z,97418.00
2019-04-27T00:56:59.912Z,97403.00
2019-04-27T00:59:47.350Z,97415.00
2019-04-27T01:02:36.337Z,97404.00
2019-04-27T01:05:09.052Z,97403.00
2019-04-27T01:07:38.408Z,97406.00
2019-04-27T01:10:08.566Z,97401.00
2019-04-27T01:12:38.310Z,97404.00
2019-04-27T01:15:07.917Z,97401.00
2019-04-27T01:17:39.100Z,97410.00
2019-04-27T01:20:09.217Z,97404.00
2019-04-27T01:22:39.192Z,97392.00
2019-04-27T01:25:09.107Z,97387.00
2019-04-27T01:27:46.397Z,97394.00
2019-04-27T01:30:18.866Z,97391.00
2019-04-27T01:32:49.386Z,97392.00
2019-04-27T01:35:18.818Z,97384.00
2019-04-27T01:37:48.733Z,97385.00
2019-04-27T01:40:19.348Z,97385.00
2019-04-27T01:42:48.836Z,97397.00
2019-04-27T01:45:18.712Z,97388.00
2019-04-27T01:47:49.253Z,97372.00
2019-04-27T01:50:18.914Z,97371.00
2019-04-27T01:52:48.686Z,97378.00
2019-04-27T02:14:28.771Z,97376.00
2019-04-27T02:16:59.512Z,97379.00
2019-04-27T02:19:30.890Z,97364.00
2019-04-27T02:22:00.316Z,97356.00
2019-04-27T02:24:29.673Z,97366.00
2019-04-27T02:26:59.087Z,97347.00
2019-04-27T02:29:36.660Z,97354.00
2019-04-27T02:32:10.277Z,97352.00
2019-04-27T02:34:40.749Z,97358.00
2019-04-27T02:37:10.365Z,97346.00
2019-04-27T02:39:40.012Z,97348.00
2019-04-27T02:42:10.258Z,97347.00
2019-04-27T02:44:41.914Z,97345.00
2019-04-27T02:47:11.349Z,97343.00
2019-04-27T02:49:40.918Z,97339.00
2019-04-27T02:52:12.060Z,97346.00
2019-04-27T02:54:41.486Z,97326.00
2019-04-27T02:57:10.836Z,97320.00
2019-04-27T02:59:40.270Z,97332.00
2019-04-27T03:02:19.450Z,97347.00
2019-04-27T03:04:49.954Z,97345.00
2019-04-27T03:07:20.265Z,97344.00
2019-04-27T03:09:51.071Z,97331.00
2019-04-27T03:12:22.351Z,97325.00
2019-04-27T03:15:05.422Z,97322.00
2019-04-27T03:17:39.686Z,97316.00
2019-04-27T03:20:15.781Z,97313.00
2019-04-27T03:22:50.141Z,97308.00
2019-04-27T03:25:22.156Z,97310.00
2019-04-27T03:27:53.138Z,97305.00
2019-04-27T03:30:23.794Z,97297.00
2019-04-27T03:32:56.947Z,97293.00
2019-04-27T03:35:24.667Z,97289.00
2019-04-27T03:37:54.876Z,97305.00
2019-04-27T03:40:27.221Z,97302.00
2019-04-27T03:42:59.518Z,97303.00
2019-04-27T03:45:29.848Z,97300.00
2019-04-27T03:48:00.489Z,97298.00
2019-04-27T03:50:37.262Z,97289.00
2019-04-27T03:53:24.447Z,97280.00
2019-04-27T03:55:55.524Z,97278.00
2019-04-27T03:58:26.566Z,97288.00
2019-04-27T04:00:55.927Z,97279.00
2019-04-27T04:03:25.927Z,97297.00
2019-04-27T04:05:55.415Z,97269.00
2019-04-27T04:08:24.835Z,97276.00
2019-04-27T04:10:56.611Z,97267.00
2019-04-27T04:13:30.256Z,97267.00
2019-04-27T04:16:07.484Z,97270.00
2019-04-27T04:18:52.724Z,97278.00
2019-04-27T04:21:22.275Z,97278.00
2019-04-27T04:23:52.171Z,97276.00
2019-04-27T04:26:21.586Z,97265.00
2019-04-27T04:28:51.355Z,97273.00
2019-04-27T04:31:21.131Z,97263.00
2019-04-27T04:33:50.609Z,97264.00
2019-04-27T04:36:20.352Z,97264.00
2019-04-27T04:38:50.543Z,97252.00
2019-04-27T04:41:30.255Z,97257.00
2019-04-27T04:44:00.309Z,97248.00
2019-04-27T04:46:31.383Z,97264.00
2019-04-27T04:49:02.191Z,97252.00
2019-04-27T04:51:31.584Z,97241.00
2019-04-27T04:54:00.938Z,97245.00
2019-04-27T04:56:30.364Z,97252.00
2019-04-27T04:59:00.197Z,97249.00
2019-04-27T05:01:29.853Z,97249.00
2019-04-27T05:03:59.336Z,97243.00
2019-04-27T05:06:29.217Z,97248.00
2019-04-27T05:08:59.474Z,97249.00
2019-04-27T05:11:29.864Z,97256.00
2019-04-27T05:14:01.459Z,97253.00
2019-04-27T05:16:32.717Z,97247.00
2019-04-27T05:19:01.487Z,97254.00
2019-04-27T05:21:32.558Z,97255.00
2019-04-27T05:24:02.816Z,97244.00
2019-04-27T05:26:33.446Z,97241.00
2019-04-27T05:29:03.860Z,97242.00
2019-04-27T05:31:33.387Z,97244.00
2019-04-27T05:34:02.880Z,97242.00
2019-04-27T05:36:32.254Z,97248.00
2019-04-27T05:39:01.600Z,97233.00
2019-04-27T05:41:37.323Z,97256.00
2019-04-27T05:44:07.665Z,97261.00
2019-04-27T05:46:42.782Z,97243.00
2019-04-27T05:49:16.751Z,97237.00
2019-04-27T05:51:48.010Z,97242.00
2019-04-27T05:54:17.217Z,97248.00
2019-04-27T05:56:46.576Z,97239.00
2019-04-27T05:59:15.930Z,97232.00
2019-04-27T06:01:45.330Z,97235.00
2019-04-27T06:04:14.719Z,97223.00
2019-04-27T06:06:44.077Z,97227.00
2019-04-27T06:09:13.559Z,97226.00
2019-04-27T06:11:42.945Z,97224.00
2019-04-27T06:14:12.330Z,97223.00
2019-04-27T06:16:41.804Z,97219.00
2019-04-27T06:19:11.189Z,97217.00
2019-04-27T06:21:40.559Z,97217.00
2019-04-27T06:24:11.798Z,97206.00
2019-04-27T06:26:41.177Z,97203.00
2019-04-27T06:29:12.523Z,97186.00
2019-04-27T06:31:41.920Z,97186.00
2019-04-27T06:34:11.272Z,97202.00
2019-04-27T06:36:40.645Z,97199.00
2019-04-27T06:39:10.064Z,97185.00
2019-04-27T06:41:42.110Z,97203.00
2019-04-27T06:44:11.581Z,97193.00
2019-04-27T06:46:40.958Z,97198.00
2019-04-27T06:49:11.051Z,97193.00
2019-04-27T06:51:40.640Z,97206.00
2019-04-27T06:54:12.940Z,97195.00
2019-04-27T06:56:42.329Z,97190.00
2019-04-27T06:59:11.736Z,97196.00
2019-04-27T07:01:41.106Z,97190.00
2019-04-27T07:04:10.977Z,97186.00
2019-04-27T07:06:52.825Z,97189.00
2019-04-27T07:09:11.737Z,97197.00
2019-04-27T07:11:41.657Z,97197.00
2019-04-27T07:14:11.878Z,97194.00
2019-04-27T07:16:41.262Z,97190.00
2019-04-27T07:19:10.630Z,97189.00
2019-04-27T07:21:40.229Z,97184.00
2019-04-27T07:24:09.654Z,97189.00
2019-04-27T07:26:39.292Z,97195.00
2019-04-27T07:29:09.637Z,97195.00
2019-04-27T07:31:41.515Z,97186.00
2019-04-27T07:34:10.890Z,97188.00
2019-04-27T07:36:40.264Z,97180.00
2019-04-27T07:39:11.555Z,97186.00
2019-04-27T07:41:41.148Z,97181.00
2019-04-27T07:44:15.076Z,97180.00
2019-04-27T07:46:45.223Z,97183.00
2019-04-27T07:49:14.587Z,97179.00
2019-04-27T07:51:43.959Z,97177.00
2019-04-27T07:54:13.343Z,97170.00
2019-04-27T07:56:42.722Z,97164.00
2019-04-27T07:59:12.155Z,97166.00
2019-04-27T08:01:41.537Z,97171.00
2019-04-27T08:04:10.961Z,97161.00
2019-04-27T08:06:40.335Z,97167.00
2019-04-27T08:09:12.760Z,97162.00
2019-04-27T08:11:42.123Z,97178.00
2019-04-27T08:14:11.496Z,97174.00
2019-04-27T08:16:40.861Z,97168.00
2019-04-27T08:19:10.224Z,97173.00
2019-04-27T08:21:44.364Z,97162.00
2019-04-27T08:24:11.224Z,97168.00
2019-04-27T08:26:57.392Z,97173.00
2019-04-27T08:29:29.659Z,97164.00
2019-04-27T08:32:04.324Z,97160.00
2019-04-27T08:34:37.063Z,97153.00
2019-04-27T08:37:09.098Z,97165.00
2019-04-27T08:39:40.845Z,97143.00
2019-04-27T08:42:10.228Z,97160.00
2019-04-27T08:44:41.296Z,97159.00
2019-04-27T08:47:10.658Z,97174.00
2019-04-27T08:49:40.413Z,97154.00
2019-04-27T08:52:09.773Z,97162.00
2019-04-27T08:54:39.514Z,97146.00
2019-04-27T08:57:09.732Z,97154.00
2019-04-27T08:59:41.978Z,97159.00
2019-04-27T09:02:11.343Z,97149.00
2019-04-27T09:04:42.323Z,97148.00
2019-04-27T09:07:31.865Z,97155.00
2019-04-27T09:10:14.851Z,97143.00
2019-04-27T09:13:01.034Z,97140.00
2019-04-27T09:15:32.076Z,97156.00
2019-04-27T09:18:02.205Z,97141.00
2019-04-27T09:20:33.971Z,97136.00
2019-04-27T09:23:03.695Z,97133.00
2019-04-27T09:25:33.035Z,97136.00
2019-04-27T09:28:02.469Z,97129.00
2019-04-27T09:30:31.945Z,97108.00
2019-04-27T09:33:01.319Z,97117.00
2019-04-27T09:35:30.689Z,97118.00
2019-04-27T09:38:01.572Z,97127.00
2019-04-27T09:40:30.944Z,97117.00
2019-04-27T09:43:00.294Z,97126.00
2019-04-27T09:45:30.442Z,97109.00
2019-04-27T09:47:59.789Z,97117.00
2019-04-27T09:50:30.033Z,97109.00
2019-04-27T09:52:59.412Z,97111.00
2019-04-27T09:55:28.770Z,97115.00
2019-04-27T09:57:59.270Z,97121.00
2019-04-27T10:00:29.419Z,97112.00
2019-04-27T10:02:58.775Z,97103.00
2019-04-27T10:05:28.135Z,97095.00
2019-04-27T10:07:58.519Z,97093.00
2019-04-27T10:10:27.878Z,97109.00
2019-04-27T10:12:57.221Z,97109.00
2019-04-27T10:15:26.850Z,97104.00
2019-04-27T10:17:57.661Z,97086.00
2019-04-27T10:20:30.121Z,97097.00
2019-04-27T10:23:00.517Z,97099.00
2019-04-27T10:25:29.873Z,97088.00
2019-04-27T10:27:59.707Z,97094.00
2019-04-27T10:30:31.866Z,97095.00
2019-04-27T10:33:01.204Z,97081.00
2019-04-27T10:35:30.584Z,97089.00
2019-04-27T10:37:59.952Z,97090.00
2019-04-27T10:40:30.772Z,97082.00
2019-04-27T10:43:00.120Z,97090.00
2019-04-27T10:45:29.579Z,97084.00
2019-04-27T10:48:00.531Z,97081.00
2019-04-27T10:50:29.961Z,97083.00
2019-04-27T10:53:01.004Z,97067.00
2019-04-27T10:55:31.421Z,97075.00
2019-04-27T10:58:01.075Z,97068.00
2019-04-27T11:00:36.778Z,97065.00
2019-04-27T11:03:06.660Z,97058.00
2019-04-27T11:05:53.919Z,97063.00
2019-04-27T11:08:23.349Z,97058.00
2019-04-27T11:10:52.791Z,97061.00
2019-04-27T11:13:22.253Z,97065.00
2019-04-27T11:15:51.608Z,97060.00
2019-04-27T11:18:20.963Z,97051.00
2019-04-27T11:20:50.761Z,97059.00
2019-04-27T11:23:20.183Z,97112.00
2019-04-27T11:25:50.095Z,97124.00
2019-04-27T11:28:19.469Z,97114.00
2019-04-27T11:30:48.846Z,97123.00
2019-04-27T11:33:18.208Z,97114.00
2019-04-27T11:35:55.789Z,97122.00
2019-04-27T11:38:26.639Z,97131.00
2019-04-27T11:40:56.678Z,97127.00
2019-04-27T11:43:27.926Z,97124.00
2019-04-27T11:45:59.710Z,97133.00
2019-04-27T11:48:29.055Z,97137.00
2019-04-27T11:50:58.471Z,97135.00
2019-04-27T11:53:27.848Z,97146.00
2019-04-27T11:55:57.232Z,97138.00
2019-04-27T11:58:26.651Z,97135.00
2019-04-27T12:00:56.002Z,97133.00
2019-04-27T12:03:25.360Z,97134.00
2019-04-27T12:05:59.528Z,97129.00
2019-04-27T12:08:26.483Z,97131.00
2019-04-27T12:10:55.949Z,97132.00
2019-04-27T12:13:25.953Z,97129.00
2019-04-27T12:15:55.319Z,97140.00
2019-04-27T12:18:24.702Z,97128.00
2019-04-27T12:20:55.703Z,97150.00
2019-04-27T12:23:33.716Z,97146.00
2019-04-27T12:25:56.434Z,97143.00
2019-04-27T12:28:30.348Z,97140.00
2019-04-27T12:31:04.137Z,97137.00
2019-04-27T12:33:33.519Z,97151.00
2019-04-27T12:36:02.918Z,97144.00
2019-04-27T12:38:32.282Z,97154.00
2019-04-27T12:41:01.661Z,97150.00
2019-04-27T12:43:31.474Z,97164.00
2019-04-27T12:46:01.622Z,97173.00
2019-04-27T12:48:31.059Z,97177.00
2019-04-27T12:51:00.527Z,97172.00
2019-04-27T12:53:48.625Z,97185.00
2019-04-27T12:56:25.042Z,97190.00
2019-04-27T12:58:58.926Z,97185.00
2019-04-27T13:01:29.443Z,97182.00
2019-04-27T13:03:59.375Z,97186.00
2019-04-27T13:06:28.770Z,97189.00
2019-04-27T13:08:58.135Z,97190.00
2019-04-27T13:11:27.610Z,97185.00
2019-04-27T13:13:57.623Z,97187.00
2019-04-27T13:16:30.333Z,97176.00
2019-04-27T13:18:58.276Z,97186.00
2019-04-27T13:21:27.629Z,97195.00
2019-04-27T13:24:04.039Z,97189.00
2019-04-27T13:26:28.366Z,97178.00
2019-04-27T13:28:58.308Z,97160.00
2019-04-27T13:31:27.795Z,97168.00
2019-04-27T13:33:57.194Z,97162.00
2019-04-27T13:36:26.686Z,97163.00
2019-04-27T13:38:56.216Z,97149.00
2019-04-27T13:41:32.342Z,97147.00
2019-04-27T13:43:57.462Z,97142.00
2019-04-27T13:46:31.566Z,97129.00
2019-04-27T13:49:19.273Z,97118.00
2019-04-27T13:51:50.260Z,97132.00
2019-04-27T13:54:25.967Z,97125.00
2019-04-27T13:56:50.729Z,97127.00
2019-04-27T13:59:21.768Z,97137.00
2019-04-27T14:01:51.239Z,97139.00
2019-04-27T14:04:21.049Z,97151.00
2019-04-27T14:06:51.357Z,97153.00
2019-04-27T14:09:20.701Z,97148.00
2019-04-27T14:11:51.784Z,97159.00
2019-04-27T14:14:21.156Z,97153.00
2019-04-27T14:16:50.537Z,97136.00
2019-04-27T14:19:19.926Z,97127.00
2019-04-27T14:21:49.364Z,97112.00
2019-04-27T14:24:27.948Z,97095.00
2019-04-27T14:26:50.538Z,97090.00
2019-04-27T14:29:21.690Z,97093.00
2019-04-27T14:31:51.071Z,97111.00
2019-04-27T14:34:20.468Z,97104.00
2019-04-27T14:36:49.826Z,97101.00
2019-04-27T14:39:19.519Z,97097.00
2019-04-27T14:41:49.199Z,97099.00
2019-04-27T14:44:18.835Z,97106.00
2019-04-27T14:46:48.639Z,97094.00
2019-04-27T14:49:19.897Z,97075.00
2019-04-27T14:51:49.739Z,97067.00
2019-04-27T14:54:19.166Z,97071.00
2019-04-27T14:56:48.949Z,97070.00
2019-04-27T14:59:18.782Z,97073.00
2019-04-27T15:01:48.806Z,97083.00
2019-04-27T15:04:18.211Z,97077.00
2019-04-27T15:06:47.679Z,97093.00
2019-04-27T15:09:20.853Z,97104.00
2019-04-27T15:11:49.350Z,97097.00
2019-04-27T15:14:20.748Z,97090.00
2019-04-27T15:16:52.576Z,97097.00
2019-04-27T15:19:24.629Z,97110.00
2019-04-27T15:22:19.363Z,97119.00
2019-04-27T15:24:48.989Z,97145.00
2019-04-27T15:27:20.481Z,97153.00
2019-04-27T15:29:50.048Z,97170.00
2019-04-27T15:32:28.734Z,97170.00
2019-04-27T15:35:05.207Z,97170.00
2019-04-27T15:37:44.155Z,97157.00
2019-04-27T15:40:15.371Z,97143.00
2019-04-27T15:42:51.679Z,97131.00
2019-04-27T15:45:20.590Z,97124.00
2019-04-27T15:47:54.208Z,97111.00
2019-04-27T15:50:23.510Z,97116.00
2019-04-27T15:52:51.564Z,97110.00
2019-04-27T15:55:32.159Z,97106.00
2019-04-27T15:57:52.423Z,97115.00
2019-04-27T16:00:24.152Z,97107.00
2019-04-27T16:02:53.580Z,97124.00
2019-04-27T16:05:23.638Z,97124.00
2019-04-27T16:07:54.823Z,97143.00
2019-04-27T16:10:25.713Z,97146.00
2019-04-27T16:13:06.445Z,97144.00
2019-04-27T16:15:27.907Z,97147.00
2019-04-27T16:17:58.611Z,97165.00
2019-04-27T16:20:32.622Z,97156.00
2019-04-27T16:23:03.060Z,97159.00
2019-04-27T16:25:32.800Z,97160.00
2019-04-27T16:28:04.709Z,97167.00
2019-04-27T16:30:33.688Z,97173.00
2019-04-27T16:33:03.061Z,97175.00
2019-04-27T16:35:32.589Z,97186.00
2019-04-27T16:38:19.439Z,97181.00
2019-04-27T16:40:50.351Z,97183.00
2019-04-27T16:43:23.856Z,97194.00
2019-04-27T16:45:57.875Z,97192.00
2019-04-27T16:48:28.071Z,97188.00
2019-04-27T16:50:59.370Z,97181.00
2019-04-27T16:53:30.211Z,97180.00
2019-04-27T16:56:14.347Z,97183.00
2019-04-27T16:58:39.886Z,97203.00
2019-04-27T17:01:13.074Z,97182.00
2019-04-27T17:03:42.507Z,97188.00
2019-04-27T17:06:11.883Z,97190.00
2019-04-27T17:08:41.238Z,97185.00
2019-04-27T17:11:13.686Z,97179.00
2019-04-27T17:13:44.296Z,97185.00
2019-04-27T17:16:34.074Z,97193.00
2019-04-27T17:19:09.462Z,97199.00
2019-04-27T17:21:41.261Z,97195.00
2019-04-27T17:24:10.647Z,97201.00
2019-04-27T17:26:43.470Z,97196.00
2019-04-27T17:29:20.455Z,97201.00
2019-04-27T17:31:55.195Z,97202.00
2019-04-27T17:34:25.302Z,97213.00
2019-04-27T17:36:56.384Z,97228.00
2019-04-27T17:39:25.330Z,97234.00
2019-04-27T17:41:54.721Z,97231.00
2019-04-27T17:44:25.789Z,97246.00
2019-04-27T17:46:55.749Z,97262.00
2019-04-27T17:49:29.071Z,97268.00
2019-04-27T17:51:58.674Z,97267.00
2019-04-27T17:54:29.063Z,97265.00
2019-04-27T17:56:58.443Z,97284.00
2019-04-27T17:59:27.796Z,97268.00
2019-04-27T18:02:04.282Z,97282.00
2019-04-27T18:04:32.837Z,97278.00
2019-04-27T18:07:03.346Z,97291.00
2019-04-27T18:09:33.535Z,97280.00
2019-04-27T18:12:03.329Z,97295.00
2019-04-27T18:14:36.724Z,97298.00
2019-04-27T18:17:10.264Z,97280.00
2019-04-27T18:19:40.223Z,97287.00
2019-04-27T18:22:09.861Z,97285.00
2019-04-27T18:24:46.871Z,97298.00
2019-04-27T18:27:23.639Z,97289.00
2019-04-27T18:29:54.668Z,97289.00
2019-04-27T18:32:27.684Z,97299.00
2019-04-27T18:34:55.188Z,97294.00
2019-04-27T18:37:25.128Z,97293.00
2019-04-27T18:39:55.067Z,97298.00
2019-04-27T18:42:28.061Z,97303.00
2019-04-27T18:44:55.574Z,97303.00
2019-04-27T18:47:24.921Z,97309.00
2019-04-27T18:50:07.861Z,97300.00
2019-04-27T18:52:40.770Z,97314.00
2019-04-27T18:55:11.201Z,97324.00
2019-04-27T18:57:40.384Z,97322.00
2019-04-27T19:00:13.125Z,97327.00
2019-04-27T19:02:42.492Z,97329.00
2019-04-27T19:05:12.693Z,97315.00
2019-04-27T19:07:42.782Z,97332.00
2019-04-27T19:10:12.415Z,97339.00
2019-04-27T19:12:41.724Z,97337.00
2019-04-27T19:15:11.318Z,97339.00
2019-04-27T19:17:40.775Z,97345.00
2019-04-27T19:20:11.251Z,97347.00
2019-04-27T19:22:40.690Z,97346.00
2019-04-27T19:25:12.393Z,97355.00
2019-04-27T19:28:00.117Z,97361.00
2019-04-27T19:30:37.039Z,97359.00
2019-04-27T19:33:08.001Z,97361.00
2019-04-27T19:35:37.961Z,97367.00
2019-04-27T19:38:08.151Z,97367.00
2019-04-27T19:40:37.998Z,97376.00
2019-04-27T19:43:07.419Z,97389.00
2019-04-27T19:45:38.755Z,97387.00
2019-04-27T19:48:10.415Z,97402.00
2019-04-27T19:50:39.514Z,97410.00
2019-04-27T19:53:09.707Z,97405.00
2019-04-27T19:55:40.607Z,97415.00
2019-04-27T19:58:10.285Z,97412.00
2019-04-27T20:01:09.639Z,97415.00
2019-04-27T20:03:30.317Z,97412.00
2019-04-27T20:05:59.809Z,97405.00
2019-04-27T20:08:31.579Z,97422.00
2019-04-27T20:11:01.304Z,97408.00
2019-04-27T20:13:30.659Z,97419.00
2019-04-27T20:16:00.937Z,97412.00
2019-04-27T20:18:31.747Z,97407.00
2019-04-27T20:21:01.160Z,97411.00
2019-04-27T20:23:30.821Z,97410.00
2019-04-27T20:26:00.298Z,97408.00
2019-04-27T20:28:31.460Z,97409.00
2019-04-27T20:31:02.709Z,97422.00
2019-04-27T20:33:31.947Z,97430.00
2019-04-27T20:36:01.298Z,97414.00
2019-04-27T20:38:32.287Z,97427.00
2019-04-27T20:41:01.715Z,97420.00
2019-04-27T20:43:31.797Z,97425.00
2019-04-27T20:46:01.322Z,97428.00
2019-04-27T20:48:31.268Z,97433.00
2019-04-27T20:51:01.348Z,97423.00
2019-04-27T20:53:51.757Z,97430.00
2019-04-27T20:56:21.589Z,97429.00
2019-04-27T20:58:51.058Z,97423.00
2019-04-27T21:01:20.512Z,97422.00
2019-04-27T21:03:51.516Z,97431.00
2019-04-27T21:06:22.529Z,97434.00
2019-04-27T21:08:52.197Z,97432.00
2019-04-27T21:11:21.931Z,97441.00
2019-04-27T21:13:51.623Z,97446.00
2019-04-27T21:16:22.389Z,97433.00
2019-04-27T21:18:53.231Z,97448.00
2019-04-27T21:21:22.798Z,97449.00
2019-04-27T21:23:52.204Z,97459.00
2019-04-27T21:26:23.338Z,97448.00
2019-04-27T21:28:52.650Z,97449.00
2019-04-27T21:31:22.386Z,97450.00
2019-04-27T21:33:51.733Z,97449.00
2019-04-27T21:36:21.840Z,97450.00
2019-04-27T21:38:51.381Z,97457.00
2019-04-27T21:41:20.933Z,97458.00
2019-04-27T21:43:51.762Z,97451.00
2019-04-27T21:46:22.792Z,97465.00
2019-04-27T21:48:52.369Z,97459.00
2019-04-27T21:51:21.915Z,97474.00
2019-04-27T21:53:55.896Z,97472.00
2019-04-27T21:56:25.254Z,97462.00
2019-04-27T21:58:54.607Z,97464.00
2019-04-27T22:01:27.030Z,97460.00
2019-04-27T22:03:56.526Z,97459.00
2019-04-27T22:06:25.908Z,97470.00
2019-04-27T22:08:55.308Z,97461.00
2019-04-27T22:11:24.869Z,97460.00
2019-04-27T22:13:55.049Z,97473.00
2019-04-27T22:16:24.467Z,97473.00
2019-04-27T22:18:53.819Z,97468.00
2019-04-27T22:21:23.175Z,97479.00
2019-04-27T22:23:57.014Z,97469.00
2019-04-27T22:26:26.414Z,97478.00
2019-04-27T22:28:55.785Z,97471.00
2019-04-27T22:31:25.865Z,97463.00
2019-04-27T22:33:55.286Z,97472.00
2019-04-27T22:36:24.762Z,97481.00
2019-04-27T22:38:55.784Z,97485.00
2019-04-27T22:41:26.871Z,97487.00
2019-04-27T22:43:57.940Z,97495.00
2019-04-27T22:46:30.801Z,97490.00
2019-04-27T22:49:01.823Z,97496.00
2019-04-27T22:51:31.271Z,97486.00
2019-04-27T22:54:01.350Z,97495.00
2019-04-27T22:56:32.105Z,97510.00
2019-04-27T22:59:06.185Z,97500.00
2019-04-27T23:01:37.247Z,97510.00
2019-04-27T23:04:08.246Z,97490.00
2019-04-27T23:06:37.604Z,97496.00
2019-04-27T23:09:08.296Z,97486.00
2019-04-27T23:11:37.704Z,97498.00
2019-04-27T23:14:07.210Z,97492.00
2019-04-27T23:16:39.040Z,97495.00
2019-04-27T23:19:08.387Z,97497.00
2019-04-27T23:21:39.902Z,97501.00
2019-04-27T23:24:09.292Z,97491.00
2019-04-27T23:26:58.000Z,97490.00
2019-04-27T23:29:27.388Z,97494.00
2019-04-27T23:31:58.393Z,97489.00
2019-04-27T23:34:27.739Z,97486.00
2019-04-27T23:36:57.126Z,97496.00
2019-04-27T23:39:26.509Z,97491.00
2019-04-27T23:41:55.913Z,97500.00
2019-04-27T23:44:25.299Z,97498.00
2019-04-27T23:46:54.726Z,97493.00
2019-04-27T23:49:24.081Z,97490.00
2019-04-27T23:51:58.355Z,97504.00
2019-04-27T23:54:27.726Z,97498.00
2019-04-27T23:56:57.092Z,97489.00
2019-04-27T23:59:26.502Z,97498.00
